Time;durP1;ratioP1;P1;durP2;ratioP2;P2;SDS_P1;SDS_P2;PMS_P1;PMS_P2;Temp;Humidity;BMP_temperature;BMP_pressure;BME280_temperature;BME280_humidity;BME280_pressure;Samples;Min_cycle;Max_cycle;Signal;HPM_P1;HPM_P2
2021/09/24 00:01:29;;;;;;;21.27;11.40;;;15.30;91.80;;;;;;5055144;28;20414;-37
2021/09/24 00:03:54;;;;;;;22.98;11.73;;;15.30;91.80;;;;;;5054589;28;20035;-37
2021/09/24 00:06:20;;;;;;;23.85;12.43;;;15.30;91.80;;;;;;5054488;28;20468;-37
2021/09/24 00:08:46;;;;;;;22.90;11.85;;;15.30;91.90;;;;;;5054171;28;20032;-37
2021/09/24 00:11:12;;;;;;;24.55;13.02;;;15.30;91.80;;;;;;5053773;28;20025;-37
2021/09/24 00:13:37;;;;;;;20.63;12.68;;;15.30;91.90;;;;;;5054345;28;20053;-37
2021/09/24 00:16:03;;;;;;;25.65;12.20;;;15.30;91.70;;;;;;5054483;28;20064;-36
2021/09/24 00:18:29;;;;;;;23.02;12.95;;;15.30;91.80;;;;;;5053965;28;20075;-36
2021/09/24 00:20:54;;;;;;;28.00;12.55;;;15.30;92.00;;;;;;5052602;28;20029;-37
2021/09/24 00:23:20;;;;;;;32.50;13.18;;;15.30;91.70;;;;;;5053993;28;20059;-37
2021/09/24 00:25:46;;;;;;;21.55;12.60;;;15.30;91.50;;;;;;5052488;28;20047;-47
2021/09/24 00:28:11;;;;;;;21.98;12.57;;;15.30;91.40;;;;;;5053912;28;20050;-37
2021/09/24 00:30:37;;;;;;;19.60;11.98;;;15.30;91.40;;;;;;5053925;28;20054;-37
2021/09/24 00:33:03;;;;;;;27.50;13.02;;;15.30;91.40;;;;;;5053682;28;20430;-37
2021/09/24 00:35:29;;;;;;;26.95;12.30;;;15.30;91.40;;;;;;5053909;28;20036;-37
2021/09/24 00:37:54;;;;;;;22.05;12.55;;;15.30;91.50;;;;;;5053608;28;20385;-37
2021/09/24 00:40:20;;;;;;;18.85;12.77;;;15.30;91.40;;;;;;5053728;28;20104;-37
2021/09/24 00:42:45;;;;;;;23.05;11.45;;;15.30;91.20;;;;;;5054099;28;20381;-37
2021/09/24 00:45:12;;;;;;;23.23;13.02;;;15.30;91.20;;;;;;5053817;28;20109;-37
2021/09/24 00:47:37;;;;;;;25.88;13.13;;;15.40;91.20;;;;;;5053608;28;20025;-37
2021/09/24 00:50:05;;;;;;;23.08;11.68;;;15.40;91.00;;;;;;5053407;28;20021;-37
2021/09/24 00:52:31;;;;;;;22.73;14.45;;;15.50;91.00;;;;;;5053794;28;20075;-37
2021/09/24 00:54:57;;;;;;;24.95;13.75;;;15.40;90.90;;;;;;5053347;28;20029;-37
2021/09/24 00:57:22;;;;;;;27.23;15.10;;;15.50;91.10;;;;;;5053184;28;20029;-37
2021/09/24 00:59:50;;;;;;;30.27;15.93;;;15.40;91.40;;;;;;5053084;28;20381;-37
2021/09/24 01:02:16;;;;;;;29.77;17.13;;;15.30;91.80;;;;;;5053109;28;20055;-37
2021/09/24 01:04:41;;;;;;;33.60;18.10;;;15.30;91.80;;;;;;5052803;28;20087;-37
2021/09/24 01:07:07;;;;;;;37.22;21.90;;;15.40;91.70;;;;;;5052785;28;20100;-37
2021/09/24 01:09:34;;;;;;;32.88;18.40;;;15.40;91.90;;;;;;5053235;28;20021;-37
2021/09/24 01:12:01;;;;;;;34.33;20.80;;;15.40;91.80;;;;;;5053012;28;20036;-36
2021/09/24 01:14:31;;;;;;;37.42;22.20;;;15.40;92.10;;;;;;5052855;28;20389;-37
2021/09/24 01:16:58;;;;;;;41.20;22.60;;;15.40;92.30;;;;;;5053075;28;20086;-37
2021/09/24 01:19:24;;;;;;;46.13;22.27;;;15.30;92.50;;;;;;5052708;28;20049;-37
2021/09/24 01:21:50;;;;;;;47.15;24.77;;;15.40;92.40;;;;;;5052550;28;20351;-37
2021/09/24 01:24:17;;;;;;;51.38;28.35;;;15.40;92.50;;;;;;5053048;28;20030;-37
2021/09/24 01:26:52;;;;;;;52.95;26.58;;;15.50;92.50;;;;;;5052941;28;20120;-37
2021/09/24 01:29:19;;;;;;;50.72;26.55;;;15.50;92.30;;;;;;5051211;28;20036;-37
2021/09/24 01:31:44;;;;;;;52.47;28.88;;;15.60;92.20;;;;;;5052485;28;20099;-37
2021/09/24 01:34:10;;;;;;;48.13;25.98;;;15.50;92.10;;;;;;5052602;28;20207;-37
2021/09/24 01:36:36;;;;;;;50.28;29.48;;;15.50;92.30;;;;;;5052606;28;20043;-37
2021/09/24 01:39:07;;;;;;;48.50;28.13;;;15.40;92.50;;;;;;5053222;28;20028;-37
2021/09/24 01:41:36;;;;;;;49.08;29.95;;;15.50;92.50;;;;;;5052587;28;20063;-37
2021/09/24 01:44:01;;;;;;;46.92;28.20;;;15.50;92.40;;;;;;5051602;28;20120;-37
2021/09/24 01:46:27;;;;;;;52.72;30.35;;;15.60;92.10;;;;;;5051499;28;20588;-37
2021/09/24 01:48:53;;;;;;;44.85;27.23;;;15.70;91.90;;;;;;5052387;28;20048;-37
2021/09/24 01:51:18;;;;;;;48.88;27.48;;;15.60;91.90;;;;;;5052667;28;20041;-36
2021/09/24 01:53:44;;;;;;;44.28;25.33;;;15.60;91.90;;;;;;5052810;28;20064;-37
2021/09/24 01:56:10;;;;;;;55.03;27.65;;;15.60;91.90;;;;;;5052881;28;20028;-37
2021/09/24 01:58:35;;;;;;;48.60;26.80;;;15.70;91.70;;;;;;5052375;28;20030;-36
2021/09/24 02:01:01;;;;;;;55.50;28.40;;;15.70;91.50;;;;;;5052283;28;20401;-37
2021/09/24 02:03:26;;;;;;;50.35;27.42;;;15.60;91.70;;;;;;5052231;28;20029;-36
2021/09/24 02:05:52;;;;;;;52.13;24.63;;;15.60;91.90;;;;;;5052272;28;20044;-37
2021/09/24 02:08:18;;;;;;;43.13;25.65;;;15.60;92.20;;;;;;5052240;28;20029;-37
2021/09/24 02:10:43;;;;;;;45.00;26.50;;;15.50;92.20;;;;;;5052231;28;20022;-37
2021/09/24 02:13:09;;;;;;;46.53;25.00;;;15.60;92.00;;;;;;5052594;28;20075;-37
2021/09/24 02:15:35;;;;;;;54.17;26.23;;;15.50;91.80;;;;;;5052331;28;20138;-36
2021/09/24 02:18:00;;;;;;;37.65;24.10;;;15.70;91.50;;;;;;5052158;28;20049;-37
2021/09/24 02:20:26;;;;;;;45.97;26.00;;;15.50;91.70;;;;;;5052422;28;20368;-37
2021/09/24 02:22:51;;;;;;;49.40;27.15;;;15.50;92.10;;;;;;5052043;28;20033;-36
2021/09/24 02:25:17;;;;;;;40.20;25.40;;;15.60;91.90;;;;;;5052308;28;20057;-37
2021/09/24 02:27:43;;;;;;;45.28;25.77;;;15.50;91.90;;;;;;5052522;28;20021;-37
2021/09/24 02:30:09;;;;;;;42.35;23.90;;;15.60;92.00;;;;;;5052262;28;20040;-37
2021/09/24 02:32:35;;;;;;;45.85;23.65;;;15.60;91.70;;;;;;5052698;28;20063;-37
2021/09/24 02:35:01;;;;;;;37.42;23.15;;;15.50;92.00;;;;;;5056108;28;20068;-37
2021/09/24 02:37:26;;;;;;;40.20;23.15;;;15.60;91.90;;;;;;5056001;28;20120;-37
2021/09/24 02:39:52;;;;;;;52.72;25.75;;;15.70;91.40;;;;;;5056797;28;20032;-35
2021/09/24 02:42:17;;;;;;;38.70;23.75;;;15.60;91.50;;;;;;5056345;28;20029;-36
2021/09/24 02:44:43;;;;;;;41.25;23.05;;;15.50;91.90;;;;;;5055860;28;20079;-36
2021/09/24 02:47:09;;;;;;;44.33;24.73;;;15.50;91.80;;;;;;5055678;28;20124;-36
2021/09/24 02:49:37;;;;;;;38.00;20.83;;;15.40;91.90;;;;;;5055755;28;20514;-36
2021/09/24 02:52:06;;;;;;;51.13;22.15;;;15.30;92.20;;;;;;5056649;28;20035;-36
2021/09/24 02:54:32;;;;;;;40.05;21.90;;;15.30;92.60;;;;;;5055698;28;20040;-37
2021/09/24 02:56:57;;;;;;;42.20;23.38;;;15.40;92.60;;;;;;5054376;28;20028;-36
2021/09/24 02:59:23;;;;;;;45.00;23.80;;;15.50;92.40;;;;;;5055930;28;20083;-36
2021/09/24 03:01:48;;;;;;;45.60;23.70;;;15.50;91.90;;;;;;5055450;28;20079;-36
2021/09/24 03:04:14;;;;;;;45.60;23.15;;;15.60;91.80;;;;;;5055382;28;20379;-36
2021/09/24 03:06:40;;;;;;;39.95;23.58;;;15.60;91.60;;;;;;5055170;28;20029;-36
2021/09/24 03:09:06;;;;;;;40.55;22.08;;;15.50;91.60;;;;;;5055631;28;20028;-36
2021/09/24 03:11:32;;;;;;;36.58;21.83;;;15.40;91.80;;;;;;5055390;28;20430;-37
2021/09/24 03:13:57;;;;;;;36.25;21.58;;;15.30;92.40;;;;;;5054616;28;20361;-37
2021/09/24 03:16:23;;;;;;;36.08;20.92;;;15.30;92.40;;;;;;5055165;28;20487;-37
2021/09/24 03:18:49;;;;;;;34.03;20.95;;;15.30;92.70;;;;;;5053596;28;20128;-37
2021/09/24 03:21:15;;;;;;;43.25;22.88;;;15.30;92.90;;;;;;5055164;28;20051;-37
2021/09/24 03:23:40;;;;;;;34.10;21.25;;;15.40;92.80;;;;;;5055189;28;20025;-37
2021/09/24 03:26:06;;;;;;;38.63;21.52;;;15.40;92.10;;;;;;5055073;28;20036;-36
2021/09/24 03:28:32;;;;;;;32.30;19.58;;;15.30;92.60;;;;;;5054984;28;20111;-37
2021/09/24 03:30:57;;;;;;;34.75;19.73;;;15.40;92.70;;;;;;5055033;28;20087;-37
2021/09/24 03:33:23;;;;;;;37.03;22.65;;;15.40;92.60;;;;;;5055277;28;20459;-37
2021/09/24 03:35:49;;;;;;;43.53;23.27;;;15.40;92.20;;;;;;5054894;28;20037;-37
2021/09/24 03:38:14;;;;;;;41.03;21.73;;;15.50;92.30;;;;;;5053543;28;20017;-37
2021/09/24 03:40:40;;;;;;;33.65;20.67;;;15.50;92.20;;;;;;5054809;28;20029;-37
2021/09/24 03:43:06;;;;;;;34.95;19.80;;;15.40;92.10;;;;;;5053640;28;20029;-37
2021/09/24 03:45:32;;;;;;;29.45;20.75;;;15.50;92.60;;;;;;5053251;28;20041;-37
2021/09/24 03:47:58;;;;;;;33.78;19.60;;;15.40;92.30;;;;;;5053569;28;20048;-37
2021/09/24 03:50:24;;;;;;;36.13;20.83;;;15.30;92.30;;;;;;5053256;28;20017;-37
2021/09/24 03:52:52;;;;;;;39.38;21.75;;;15.40;92.30;;;;;;5054409;28;20104;-37
2021/09/24 03:55:18;;;;;;;30.45;19.77;;;15.40;92.00;;;;;;5054330;28;20561;-36
2021/09/24 03:57:43;;;;;;;32.25;19.83;;;15.30;92.50;;;;;;5054352;28;20152;-37
2021/09/24 04:00:10;;;;;;;35.65;19.42;;;15.20;92.90;;;;;;5054613;28;20354;-37
2021/09/24 04:02:35;;;;;;;33.38;21.27;;;15.30;92.90;;;;;;5054192;28;20028;-37
2021/09/24 04:05:01;;;;;;;45.85;24.33;;;15.30;93.10;;;;;;5054270;28;20021;-37
2021/09/24 04:07:26;;;;;;;37.63;26.13;;;15.30;92.90;;;;;;5054481;28;20025;-37
2021/09/24 04:09:52;;;;;;;38.13;22.10;;;15.40;92.70;;;;;;5052825;28;20024;-37
2021/09/24 04:12:18;;;;;;;40.97;26.45;;;15.30;92.90;;;;;;5054425;28;20486;-37
2021/09/24 04:14:43;;;;;;;42.83;26.15;;;15.30;92.90;;;;;;5052760;28;20017;-37
2021/09/24 04:17:09;;;;;;;39.70;26.30;;;15.40;92.80;;;;;;5054040;28;20020;-37
2021/09/24 04:19:35;;;;;;;42.10;26.92;;;15.60;92.50;;;;;;5053529;28;20099;-37
2021/09/24 04:22:00;;;;;;;44.95;24.73;;;15.50;92.10;;;;;;5053918;28;20025;-37
2021/09/24 04:24:26;;;;;;;42.55;26.73;;;15.50;92.20;;;;;;5054196;28;20028;-37
2021/09/24 04:26:52;;;;;;;42.33;25.55;;;15.50;92.30;;;;;;5053951;28;20033;-37
2021/09/24 04:29:17;;;;;;;44.55;27.42;;;15.60;92.50;;;;;;5054392;28;20024;-37
2021/09/24 04:31:43;;;;;;;46.65;26.95;;;15.70;91.90;;;;;;5054139;28;20058;-37
2021/09/24 04:34:09;;;;;;;39.35;24.67;;;15.50;92.20;;;;;;5053809;28;20053;-37
2021/09/24 04:36:36;;;;;;;43.53;28.88;;;15.50;92.20;;;;;;5054241;28;20521;-37
2021/09/24 04:39:03;;;;;;;47.08;28.15;;;15.50;92.10;;;;;;5053771;28;20109;-37
2021/09/24 04:41:28;;;;;;;51.25;28.08;;;15.50;92.50;;;;;;5053672;28;20511;-37
2021/09/24 04:43:54;;;;;;;46.83;27.58;;;15.60;92.20;;;;;;5052099;28;20079;-37
2021/09/24 04:46:20;;;;;;;57.13;30.13;;;15.50;92.30;;;;;;5053717;28;20032;-37
2021/09/24 04:48:45;;;;;;;51.35;30.25;;;15.50;92.40;;;;;;5053889;28;20026;-38
2021/09/24 04:51:12;;;;;;;51.53;31.13;;;15.70;92.00;;;;;;5053654;28;20111;-37
2021/09/24 04:53:37;;;;;;;61.65;34.65;;;15.70;91.50;;;;;;5053391;28;20064;-37
2021/09/24 04:56:03;;;;;;;74.22;37.95;;;15.80;91.50;;;;;;5053268;28;20025;-37
2021/09/24 04:58:29;;;;;;;60.83;35.63;;;15.80;91.20;;;;;;5053205;28;20033;-37
2021/09/24 05:00:54;;;;;;;80.07;39.15;;;15.80;91.00;;;;;;5051858;28;20028;-37
2021/09/24 05:03:20;;;;;;;77.13;38.63;;;15.80;91.10;;;;;;5053202;28;20029;-37
2021/09/24 05:05:46;;;;;;;59.65;37.00;;;15.70;91.50;;;;;;5053127;28;20029;-37
2021/09/24 05:08:11;;;;;;;58.38;36.30;;;15.70;91.70;;;;;;5053227;28;20021;-37
2021/09/24 05:10:38;;;;;;;66.60;38.55;;;15.70;91.60;;;;;;5052983;28;20504;-37
2021/09/24 05:13:04;;;;;;;60.40;34.28;;;15.70;91.60;;;;;;5053145;28;20055;-38
2021/09/24 05:15:29;;;;;;;63.83;37.15;;;15.50;91.90;;;;;;5052875;28;20147;-37
2021/09/24 05:17:56;;;;;;;67.03;38.97;;;15.70;91.80;;;;;;5053057;28;20120;-37
2021/09/24 05:20:22;;;;;;;76.85;40.42;;;15.80;91.50;;;;;;5051411;28;20117;-37
2021/09/24 05:22:47;;;;;;;77.15;40.88;;;15.70;91.50;;;;;;5052102;28;20048;-37
2021/09/24 05:25:13;;;;;;;73.65;41.13;;;15.80;91.40;;;;;;5053108;28;20369;-37
2021/09/24 05:27:39;;;;;;;73.50;41.78;;;15.70;91.60;;;;;;5052891;28;20029;-37
2021/09/24 05:30:06;;;;;;;84.90;43.15;;;15.70;91.80;;;;;;5051422;28;20021;-37
2021/09/24 05:32:32;;;;;;;91.60;46.20;;;15.70;91.50;;;;;;5052830;28;20039;-37
2021/09/24 05:34:57;;;;;;;85.18;45.90;;;15.80;91.50;;;;;;5051371;28;20029;-37
2021/09/24 05:37:23;;;;;;;89.47;43.65;;;15.80;91.40;;;;;;5052988;28;20036;-37
2021/09/24 05:39:49;;;;;;;75.43;41.00;;;15.80;91.40;;;;;;5052617;28;20536;-37
2021/09/24 05:42:15;;;;;;;83.97;43.45;;;15.80;91.40;;;;;;5052440;28;20043;-37
2021/09/24 05:44:41;;;;;;;88.40;42.20;;;15.80;91.70;;;;;;5052616;28;20515;-36
2021/09/24 05:47:07;;;;;;;84.82;46.75;;;15.80;91.50;;;;;;5052382;28;20029;-37
2021/09/24 05:49:32;;;;;;;92.32;43.47;;;15.80;91.30;;;;;;5052550;28;20021;-37
2021/09/24 05:51:58;;;;;;;102.30;46.92;;;15.80;91.40;;;;;;5052311;28;20372;-36
2021/09/24 05:54:25;;;;;;;100.70;44.72;;;15.80;91.50;;;;;;5052175;28;20477;-37
2021/09/24 05:56:52;;;;;;;98.28;48.33;;;15.80;91.50;;;;;;5052132;28;20151;-37
2021/09/24 05:59:17;;;;;;;101.43;48.33;;;15.80;91.50;;;;;;5052069;28;20025;-37
2021/09/24 06:01:45;;;;;;;101.65;48.83;;;15.80;91.50;;;;;;5051896;28;20100;-39
2021/09/24 06:04:10;;;;;;;91.03;42.70;;;15.90;91.30;;;;;;5052586;28;20025;-36
2021/09/24 06:06:36;;;;;;;102.80;47.33;;;15.80;91.40;;;;;;5052176;28;20435;-36
2021/09/24 06:09:02;;;;;;;108.85;48.33;;;15.90;91.40;;;;;;5055383;28;20013;-36
2021/09/24 06:11:29;;;;;;;99.60;47.40;;;16.00;91.10;;;;;;5056375;28;20497;-37
2021/09/24 06:13:54;;;;;;;114.95;51.67;;;15.90;91.10;;;;;;5056453;28;20103;-37
2021/09/24 06:16:21;;;;;;;109.60;48.47;;;15.90;91.40;;;;;;5056298;28;20188;-37
2021/09/24 06:18:47;;;;;;;107.97;50.58;;;16.00;91.20;;;;;;5056643;28;20057;-37
2021/09/24 06:21:12;;;;;;;112.28;48.60;;;15.90;91.40;;;;;;5056288;28;20453;-36
2021/09/24 06:23:42;;;;;;;150.13;51.92;;;15.80;91.50;;;;;;5056164;28;20109;-39
2021/09/24 06:26:08;;;;;;;112.97;50.83;;;15.80;91.80;;;;;;5056302;28;20448;-37
2021/09/24 06:28:33;;;;;;;142.13;55.40;;;15.90;91.70;;;;;;5055916;28;20347;-37
2021/09/24 06:30:59;;;;;;;146.15;56.85;;;15.80;92.00;;;;;;5056302;28;20021;-37
2021/09/24 06:33:25;;;;;;;147.93;58.50;;;15.80;92.40;;;;;;5056692;28;20028;-37
2021/09/24 06:35:51;;;;;;;134.38;53.45;;;15.70;92.70;;;;;;5056386;28;20436;-37
2021/09/24 06:38:17;;;;;;;146.70;56.55;;;15.70;92.90;;;;;;5056872;28;20033;-38
2021/09/24 06:40:44;;;;;;;143.23;53.65;;;15.70;92.80;;;;;;5055158;28;20118;-37
2021/09/24 06:43:10;;;;;;;140.13;59.83;;;15.80;92.80;;;;;;5054322;28;20031;-44
2021/09/24 06:45:37;;;;;;;155.07;62.85;;;15.80;92.70;;;;;;5055802;28;20024;-39
2021/09/24 06:48:04;;;;;;;128.73;53.80;;;15.80;92.70;;;;;;5055010;28;20029;-37
2021/09/24 06:50:30;;;;;;;149.98;60.17;;;15.80;92.60;;;;;;5056548;28;20017;-38
2021/09/24 06:52:56;;;;;;;138.40;56.65;;;15.70;92.90;;;;;;5055600;28;20025;-38
2021/09/24 06:55:22;;;;;;;133.45;58.92;;;15.70;92.90;;;;;;5055680;28;20074;-38
2021/09/24 06:57:49;;;;;;;146.88;60.42;;;15.80;92.80;;;;;;5055843;28;20067;-37
2021/09/24 07:00:15;;;;;;;155.43;62.65;;;15.80;92.60;;;;;;5055666;28;20439;-38
2021/09/24 07:02:41;;;;;;;152.50;63.45;;;15.80;92.70;;;;;;5055634;28;20465;-38
2021/09/24 07:05:07;;;;;;;139.23;58.72;;;15.80;92.70;;;;;;5055531;28;20031;-37
2021/09/24 07:07:32;;;;;;;169.57;66.85;;;15.70;92.80;;;;;;5054640;28;20035;-38
2021/09/24 07:09:58;;;;;;;163.57;64.35;;;15.80;92.90;;;;;;5053306;28;20032;-37
2021/09/24 07:12:25;;;;;;;141.85;60.75;;;15.70;92.80;;;;;;5055012;28;20021;-37
2021/09/24 07:14:51;;;;;;;151.15;63.47;;;15.70;93.00;;;;;;5055015;28;20108;-37
2021/09/24 07:17:16;;;;;;;144.48;61.92;;;15.70;93.00;;;;;;5054971;28;20503;-39
2021/09/24 07:19:42;;;;;;;139.40;60.78;;;15.70;92.80;;;;;;5054804;28;20369;-39
2021/09/24 07:22:10;;;;;;;141.93;64.50;;;15.70;92.80;;;;;;5055070;28;20488;-36
2021/09/24 07:24:36;;;;;;;144.40;57.40;;;15.70;92.60;;;;;;5055381;28;20029;-37
2021/09/24 07:27:02;;;;;;;140.73;58.95;;;15.70;92.80;;;;;;5054897;28;20472;-37
2021/09/24 07:29:27;;;;;;;128.10;60.83;;;15.70;92.70;;;;;;5054780;28;20037;-39
2021/09/24 07:31:53;;;;;;;130.32;57.33;;;15.80;92.80;;;;;;5053563;28;20474;-37
2021/09/24 07:34:18;;;;;;;136.85;59.28;;;15.80;92.20;;;;;;5054922;28;20425;-37
2021/09/24 07:36:45;;;;;;;145.20;61.38;;;15.80;92.40;;;;;;5054907;28;20100;-38
2021/09/24 07:39:10;;;;;;;131.10;58.42;;;15.80;92.20;;;;;;5054414;28;20029;-37
2021/09/24 07:41:36;;;;;;;150.63;61.85;;;15.70;92.40;;;;;;5054701;28;20027;-37
2021/09/24 07:44:04;;;;;;;135.90;63.25;;;15.70;92.60;;;;;;5054400;28;20527;-38
2021/09/24 07:46:30;;;;;;;148.85;65.75;;;15.60;92.80;;;;;;5053993;28;20033;-37
2021/09/24 07:48:57;;;;;;;139.70;58.97;;;15.70;92.80;;;;;;5053720;28;20078;-37
2021/09/24 07:51:23;;;;;;;132.70;58.10;;;15.60;92.60;;;;;;5053677;28;20116;-39
2021/09/24 07:53:49;;;;;;;154.52;63.88;;;15.60;92.70;;;;;;5055064;28;20096;-37
2021/09/24 07:56:14;;;;;;;143.82;61.42;;;15.60;92.60;;;;;;5055513;28;20337;-38
2021/09/24 07:58:40;;;;;;;134.63;60.88;;;15.60;92.50;;;;;;5055040;28;20400;-37
2021/09/24 08:01:07;;;;;;;129.77;53.13;;;15.50;92.60;;;;;;5054228;28;20029;-37
2021/09/24 08:03:34;;;;;;;134.70;56.28;;;15.40;93.00;;;;;;5054646;28;20025;-36
2021/09/24 08:05:59;;;;;;;123.50;54.47;;;15.30;93.00;;;;;;5054528;28;20086;-37
2021/09/24 08:08:26;;;;;;;126.10;52.30;;;15.40;93.00;;;;;;5054305;28;20029;-36
2021/09/24 08:10:52;;;;;;;115.82;51.47;;;15.40;92.70;;;;;;5052836;28;20378;-37
2021/09/24 08:13:17;;;;;;;109.50;49.10;;;15.50;92.50;;;;;;5053987;28;20025;-38
2021/09/24 08:15:43;;;;;;;112.95;50.63;;;15.50;92.20;;;;;;5053195;28;20104;-37
2021/09/24 08:18:13;;;;;;;90.40;43.95;;;15.50;92.00;;;;;;5054267;28;20421;-39
2021/09/24 08:20:40;;;;;;;107.85;49.25;;;15.50;91.60;;;;;;5053100;28;20032;-37
2021/09/24 08:23:07;;;;;;;99.35;46.85;;;15.60;91.50;;;;;;5054372;28;20500;-42
2021/09/24 08:25:32;;;;;;;95.45;46.25;;;15.60;91.60;;;;;;5053518;28;20358;-37
2021/09/24 08:28:07;;;;;;;93.95;46.03;;;15.60;91.50;;;;;;5053892;28;20143;-40
2021/09/24 08:30:33;;;;;;;92.65;46.88;;;15.60;91.60;;;;;;5053007;28;20013;-37
2021/09/24 08:33:01;;;;;;;86.40;43.35;;;15.60;91.40;;;;;;5053204;28;20021;-37
2021/09/24 08:35:27;;;;;;;95.63;47.13;;;15.70;91.20;;;;;;5053217;28;20021;-38
2021/09/24 08:37:54;;;;;;;96.60;50.42;;;15.70;91.20;;;;;;5053290;28;20025;-37
2021/09/24 08:40:22;;;;;;;95.22;48.60;;;15.60;91.40;;;;;;5053009;28;20033;-37
2021/09/24 08:42:48;;;;;;;94.05;47.42;;;15.60;91.50;;;;;;5051650;28;20479;-37
2021/09/24 08:45:30;;;;;;;89.80;46.63;;;15.70;91.40;;;;;;5052868;28;20013;-37
2021/09/24 08:48:05;;;;;;;91.90;49.45;;;15.60;91.30;;;;;;5050973;28;20025;-37
2021/09/24 08:50:37;;;;;;;96.90;49.47;;;15.60;91.60;;;;;;5052382;28;20082;-37
2021/09/24 08:53:04;;;;;;;85.20;40.53;;;15.60;91.70;;;;;;5053307;28;20426;-37
2021/09/24 08:55:30;;;;;;;85.72;45.20;;;15.40;91.70;;;;;;5052656;28;20033;-37
2021/09/24 08:57:56;;;;;;;90.32;45.67;;;15.40;91.80;;;;;;5053379;28;20021;-36
2021/09/24 09:00:22;;;;;;;86.00;45.38;;;15.50;91.40;;;;;;5052779;28;20025;-39
2021/09/24 09:02:58;;;;;;;91.22;47.50;;;15.50;91.20;;;;;;5053558;28;20419;-38
2021/09/24 09:05:27;;;;;;;76.40;40.22;;;15.70;90.80;;;;;;5052930;28;20025;-38
2021/09/24 09:08:15;;;;;;;71.28;40.20;;;15.70;90.60;;;;;;5053127;28;20473;-39
2021/09/24 09:10:57;;;;;;;69.85;37.95;;;15.60;90.40;;;;;;5052587;28;20490;-37
2021/09/24 09:13:50;;;;;;;74.55;36.38;;;15.50;90.90;;;;;;5052115;28;20040;-38
2021/09/24 09:16:22;;;;;;;65.22;36.10;;;15.40;91.30;;;;;;5052034;28;20092;-42
2021/09/24 09:18:50;;;;;;;63.28;33.90;;;15.40;91.40;;;;;;5052410;28;20103;-37
2021/09/24 09:21:21;;;;;;;66.72;35.25;;;15.30;91.70;;;;;;5052257;28;20078;-37
2021/09/24 09:23:51;;;;;;;69.78;33.28;;;15.30;92.00;;;;;;5051973;28;20418;-37
2021/09/24 09:26:19;;;;;;;66.70;31.55;;;15.30;91.90;;;;;;5052147;28;20114;-37
2021/09/24 09:28:57;;;;;;;57.40;30.17;;;15.40;91.60;;;;;;5051911;28;20446;-38
2021/09/24 09:31:41;;;;;;;60.10;31.92;;;15.40;91.60;;;;;;5052074;28;20017;-37
2021/09/24 09:34:10;;;;;;;63.95;33.20;;;15.50;91.70;;;;;;5052174;28;20377;-37
2021/09/24 09:36:39;;;;;;;57.50;30.35;;;15.50;91.60;;;;;;5052237;28;20057;-37
2021/09/24 09:39:13;;;;;;;65.80;32.80;;;15.50;91.50;;;;;;5052102;28;20127;-37
2021/09/24 09:41:51;;;;;;;63.28;33.88;;;15.50;91.80;;;;;;5051767;28;20021;-37
2021/09/24 09:44:29;;;;;;;57.00;30.15;;;15.50;91.60;;;;;;5052074;28;20055;-37
2021/09/24 09:46:56;;;;;;;59.15;31.67;;;15.50;91.70;;;;;;5051972;28;20028;-37
2021/09/24 09:49:26;;;;;;;56.53;31.77;;;15.70;91.70;;;;;;5052146;28;20029;-37
2021/09/24 09:52:14;;;;;;;49.75;29.35;;;15.80;91.20;;;;;;5051946;28;20017;-38
2021/09/24 09:54:40;;;;;;;65.28;33.08;;;15.70;91.00;;;;;;5052071;28;20033;-37
2021/09/24 09:57:11;;;;;;;64.00;33.15;;;15.70;91.00;;;;;;5050521;28;20054;-37
2021/09/24 09:59:36;;;;;;;67.30;34.75;;;15.70;91.30;;;;;;5052050;28;20116;-38
2021/09/24 10:02:20;;;;;;;60.03;33.33;;;15.70;91.20;;;;;;5052104;28;20625;-37
2021/09/24 10:04:50;;;;;;;79.45;38.85;;;15.70;91.30;;;;;;5052358;28;20215;-38
2021/09/24 10:07:22;;;;;;;66.65;36.97;;;15.80;91.40;;;;;;5052023;28;20040;-38
2021/09/24 10:10:03;;;;;;;69.50;35.15;;;15.80;91.10;;;;;;5051638;28;20025;-38
2021/09/24 10:12:29;;;;;;;67.63;36.67;;;15.80;91.10;;;;;;5051863;28;20100;-38
2021/09/24 10:14:55;;;;;;;64.07;35.85;;;15.80;91.20;;;;;;5051962;28;20064;-38
2021/09/24 10:17:23;;;;;;;62.50;36.53;;;15.90;90.80;;;;;;5051442;28;20021;-38
2021/09/24 10:19:50;;;;;;;67.70;39.25;;;15.80;91.00;;;;;;5051985;28;20583;-38
2021/09/24 10:22:17;;;;;;;67.45;36.25;;;15.90;91.00;;;;;;5051656;28;20028;-38
2021/09/24 10:24:43;;;;;;;62.55;32.72;;;16.00;90.50;;;;;;5051650;28;20070;-37
2021/09/24 10:27:18;;;;;;;52.42;30.10;;;16.00;90.10;;;;;;5051547;28;20025;-37
2021/09/24 10:29:46;;;;;;;59.33;32.85;;;15.90;90.60;;;;;;5051956;28;20078;-37
2021/09/24 10:32:21;;;;;;;58.35;32.85;;;16.10;90.30;;;;;;5051784;28;20021;-37
2021/09/24 10:35:14;;;;;;;54.70;31.73;;;16.10;89.80;;;;;;5051801;28;20525;-37
2021/09/24 10:37:45;;;;;;;47.33;28.00;;;16.20;89.40;;;;;;5049221;28;20538;-37
2021/09/24 10:40:20;;;;;;;54.63;29.17;;;16.30;89.20;;;;;;5051581;28;20029;-37
2021/09/24 10:42:51;;;;;;;54.90;26.42;;;16.20;89.00;;;;;;5050620;28;20075;-36
2021/09/24 10:45:33;;;;;;;46.92;29.83;;;16.30;89.20;;;;;;5052142;28;20024;-39
2021/09/24 10:48:10;;;;;;;43.70;25.48;;;16.40;88.50;;;;;;5050001;28;20032;-38
2021/09/24 10:50:38;;;;;;;41.22;25.17;;;16.40;88.60;;;;;;5051737;28;20099;-39
2021/09/24 10:55:35;;;;;;;45.50;27.55;;;16.60;87.90;;;;;;5054971;28;20028;-39
2021/09/24 10:58:02;;;;;;;47.80;28.73;;;16.60;88.00;;;;;;5055535;28;20025;-39
2021/09/24 11:00:30;;;;;;;45.13;28.42;;;16.60;88.10;;;;;;5055082;28;20032;-38
2021/09/24 11:03:26;;;;;;;42.90;27.33;;;16.70;88.20;;;;;;5055020;28;20025;-38
2021/09/24 11:06:02;;;;;;;48.40;29.70;;;16.80;87.70;;;;;;5054188;28;20079;-39
2021/09/24 11:08:36;;;;;;;44.30;28.77;;;16.80;87.80;;;;;;5055169;28;20052;-39
2021/09/24 11:11:07;;;;;;;50.67;27.23;;;16.70;87.60;;;;;;5055114;28;20449;-38
2021/09/24 11:13:35;;;;;;;38.95;25.95;;;16.70;87.40;;;;;;5054873;28;20100;-40
2021/09/24 11:16:06;;;;;;;34.17;24.80;;;16.80;87.20;;;;;;5055163;28;20033;-37
2021/09/24 11:18:55;;;;;;;38.35;24.65;;;16.80;87.30;;;;;;5053484;28;20053;-39
2021/09/24 11:21:33;;;;;;;30.98;22.77;;;16.90;86.60;;;;;;5054826;28;20029;-39
2021/09/24 11:24:02;;;;;;;31.77;20.52;;;17.20;86.00;;;;;;5054992;28;20094;-39
2021/09/24 11:26:31;;;;;;;30.38;20.65;;;17.40;84.70;;;;;;5054729;28;20033;-39
2021/09/24 11:29:11;;;;;;;35.08;20.05;;;17.60;83.90;;;;;;5054652;28;20032;-39
2021/09/24 11:31:55;;;;;;;29.65;19.13;;;17.80;83.10;;;;;;5054768;28;20013;-38
2021/09/24 11:34:37;;;;;;;24.42;15.80;;;18.10;82.10;;;;;;5055242;28;20063;-37
2021/09/24 11:37:24;;;;;;;19.88;14.93;;;18.00;81.60;;;;;;5054609;28;20078;-38
2021/09/24 11:40:05;;;;;;;25.30;15.07;;;18.20;81.40;;;;;;5053061;28;20021;-38
2021/09/24 11:42:33;;;;;;;34.05;16.63;;;18.40;80.40;;;;;;5053054;28;20085;-40
2021/09/24 11:45:00;;;;;;;26.67;15.90;;;18.10;81.10;;;;;;5054499;28;20025;-39
2021/09/24 11:47:33;;;;;;;24.15;15.25;;;18.00;81.70;;;;;;5054368;28;20063;-38
2021/09/24 11:50:04;;;;;;;21.17;12.60;;;18.20;81.50;;;;;;5054352;28;20370;-39
2021/09/24 11:52:57;;;;;;;21.63;13.93;;;18.30;80.90;;;;;;5053940;28;20021;-38
2021/09/24 11:55:29;;;;;;;21.27;14.10;;;18.40;80.10;;;;;;5053387;28;20037;-40
2021/09/24 11:58:04;;;;;;;18.27;13.45;;;18.40;80.70;;;;;;5053897;28;20132;-40
2021/09/24 12:00:51;;;;;;;21.40;14.65;;;18.40;80.70;;;;;;5054981;28;20025;-39
2021/09/24 12:03:22;;;;;;;25.08;13.45;;;18.70;79.60;;;;;;5054012;28;20033;-39
2021/09/24 12:06:03;;;;;;;18.30;12.52;;;18.40;79.40;;;;;;5052743;28;20116;-38
2021/09/24 12:08:31;;;;;;;18.60;12.68;;;18.50;79.10;;;;;;5054002;28;20017;-38
2021/09/24 12:11:07;;;;;;;19.60;12.75;;;18.10;80.90;;;;;;5053449;28;20070;-38
2021/09/24 12:13:43;;;;;;;19.30;13.18;;;18.20;80.30;;;;;;5053786;28;20025;-39
2021/09/24 12:16:14;;;;;;;20.00;13.20;;;18.30;80.70;;;;;;5053988;28;20021;-39
2021/09/24 12:18:47;;;;;;;21.35;14.00;;;18.30;80.90;;;;;;5053619;28;20235;-39
2021/09/24 12:21:15;;;;;;;25.23;13.65;;;18.30;80.20;;;;;;5054040;28;20346;-38
2021/09/24 12:23:41;;;;;;;20.17;11.25;;;18.40;79.20;;;;;;5053694;28;20385;-37
2021/09/24 12:26:08;;;;;;;18.60;12.07;;;18.20;79.90;;;;;;5053708;28;20025;-38
2021/09/24 12:28:37;;;;;;;13.52;11.13;;;18.30;79.10;;;;;;5053861;28;20117;-39
2021/09/24 12:31:04;;;;;;;17.65;10.40;;;18.40;79.20;;;;;;5053726;28;20029;-39
2021/09/24 12:33:30;;;;;;;15.77;10.20;;;18.60;78.00;;;;;;5053576;28;20080;-39